Dunton, Colorado
Current Conditions -  °F | °C
As of 6:53 PM on Sunday 23 Nov 2014 (Local Time) from KCEZ Reporting Station
Clear Clear  
Wind Chill: 23°   Ceiling: Unl
Heat Index: 28°   Visibility: 10mi
Dew Point: 20°   Wind: 5mph
Humidity: 72%   Direction: 350°N
Pressure: 30.09"   Gusts: NA
Location:  37.5429°N, 108.35°W
Report Text: KCEZ 240153Z AUTO 35004KT 10SM CLR M02/M07 A3009 RMK AO2 SLP191 T10221067
Loading
Personal Weather Stations






























Interactive Weather Map New forecast layout! Learn more

10-Day Weather Forecast

Advertisements
Track Severe Weather on mobile